sensor_id;sensor_type;location;lat;lon;timestamp;P1;durP1;ratioP1;P2;durP2;ratioP2
10335;SDS011;5213;53.548;9.930;2023-07-20T00:01:35;3.00;;;2.80;;
10335;SDS011;5213;53.548;9.930;2023-07-20T00:04:01;3.17;;;2.97;;
10335;SDS011;5213;53.548;9.930;2023-07-20T00:06:26;2.72;;;2.50;;
10335;SDS011;5213;53.548;9.930;2023-07-20T00:08:53;2.45;;;2.30;;
10335;SDS011;5213;53.548;9.930;2023-07-20T00:11:25;2.90;;;2.70;;
10335;SDS011;5213;53.548;9.930;2023-07-20T00:13:52;2.75;;;2.55;;
10335;SDS011;5213;53.548;9.930;2023-07-20T00:16:18;2.83;;;2.60;;
10335;SDS011;5213;53.548;9.930;2023-07-20T00:18:43;3.08;;;2.58;;
10335;SDS011;5213;53.548;9.930;2023-07-20T00:21:09;2.72;;;2.30;;
10335;SDS011;5213;53.548;9.930;2023-07-20T00:23:35;2.50;;;2.30;;
10335;SDS011;5213;53.548;9.930;2023-07-20T00:26:01;2.33;;;2.13;;
10335;SDS011;5213;53.548;9.930;2023-07-20T00:28:27;2.50;;;2.40;;
10335;SDS011;5213;53.548;9.930;2023-07-20T00:30:52;2.53;;;2.40;;
10335;SDS011;5213;53.548;9.930;2023-07-20T00:33:18;2.33;;;2.13;;
10335;SDS011;5213;53.548;9.930;2023-07-20T00:35:44;2.20;;;2.10;;
10335;SDS011;5213;53.548;9.930;2023-07-20T00:38:09;2.58;;;2.38;;
10335;SDS011;5213;53.548;9.930;2023-07-20T00:40:39;2.95;;;2.75;;
10335;SDS011;5213;53.548;9.930;2023-07-20T00:43:06;2.50;;;2.30;;
10335;SDS011;5213;53.548;9.930;2023-07-20T00:45:32;2.40;;;2.20;;
10335;SDS011;5213;53.548;9.930;2023-07-20T00:47:59;2.88;;;2.30;;
10335;SDS011;5213;53.548;9.930;2023-07-20T00:50:26;2.45;;;2.35;;
10335;SDS011;5213;53.548;9.930;2023-07-20T00:52:57;6.25;;;2.17;;
10335;SDS011;5213;53.548;9.930;2023-07-20T00:55:23;3.05;;;2.17;;
10335;SDS011;5213;53.548;9.930;2023-07-20T00:57:50;2.80;;;2.65;;
10335;SDS011;5213;53.548;9.930;2023-07-20T01:00:16;2.60;;;2.42;;
10335;SDS011;5213;53.548;9.930;2023-07-20T01:02:43;2.67;;;2.47;;
10335;SDS011;5213;53.548;9.930;2023-07-20T01:05:08;2.97;;;2.70;;
10335;SDS011;5213;53.548;9.930;2023-07-20T01:07:35;3.58;;;3.28;;
10335;SDS011;5213;53.548;9.930;2023-07-20T01:10:12;4.13;;;3.35;;
10335;SDS011;5213;53.548;9.930;2023-07-20T01:12:52;3.70;;;3.40;;
10335;SDS011;5213;53.548;9.930;2023-07-20T01:15:20;4.03;;;3.20;;
10335;SDS011;5213;53.548;9.930;2023-07-20T01:17:45;3.88;;;3.58;;
10335;SDS011;5213;53.548;9.930;2023-07-20T01:20:15;3.90;;;3.38;;
10335;SDS011;5213;53.548;9.930;2023-07-20T01:23:01;3.47;;;3.28;;
10335;SDS011;5213;53.548;9.930;2023-07-20T01:26:03;3.83;;;3.53;;
10335;SDS011;5213;53.548;9.930;2023-07-20T01:31:25;3.50;;;3.10;;
10335;SDS011;5213;53.548;9.930;2023-07-20T01:33:57;3.28;;;3.08;;
10335;SDS011;5213;53.548;9.930;2023-07-20T01:36:26;4.47;;;3.70;;
10335;SDS011;5213;53.548;9.930;2023-07-20T01:38:55;3.60;;;3.30;;
10335;SDS011;5213;53.548;9.930;2023-07-20T01:41:22;3.85;;;3.25;;
10335;SDS011;5213;53.548;9.930;2023-07-20T01:43:48;3.45;;;3.15;;
10335;SDS011;5213;53.548;9.930;2023-07-20T01:46:13;3.72;;;3.47;;
10335;SDS011;5213;53.548;9.930;2023-07-20T01:48:39;4.50;;;4.20;;
10335;SDS011;5213;53.548;9.930;2023-07-20T01:51:05;4.70;;;4.30;;
10335;SDS011;5213;53.548;9.930;2023-07-20T01:53:30;4.90;;;4.50;;
10335;SDS011;5213;53.548;9.930;2023-07-20T01:55:56;4.97;;;4.57;;
10335;SDS011;5213;53.548;9.930;2023-07-20T01:58:22;5.53;;;5.03;;
10335;SDS011;5213;53.548;9.930;2023-07-20T02:00:48;5.28;;;4.88;;
10335;SDS011;5213;53.548;9.930;2023-07-20T02:03:14;5.28;;;4.88;;
10335;SDS011;5213;53.548;9.930;2023-07-20T02:05:42;5.32;;;4.82;;
10335;SDS011;5213;53.548;9.930;2023-07-20T02:08:08;5.10;;;4.70;;
10335;SDS011;5213;53.548;9.930;2023-07-20T02:10:34;5.43;;;4.93;;
10335;SDS011;5213;53.548;9.930;2023-07-20T02:13:00;5.57;;;4.93;;
10335;SDS011;5213;53.548;9.930;2023-07-20T02:15:25;4.72;;;4.38;;
10335;SDS011;5213;53.548;9.930;2023-07-20T02:17:52;4.78;;;4.43;;
10335;SDS011;5213;53.548;9.930;2023-07-20T02:20:18;4.70;;;4.30;;
10335;SDS011;5213;53.548;9.930;2023-07-20T02:22:44;4.47;;;4.18;;
10335;SDS011;5213;53.548;9.930;2023-07-20T02:25:10;4.63;;;4.28;;
10335;SDS011;5213;53.548;9.930;2023-07-20T02:27:36;4.53;;;4.22;;
10335;SDS011;5213;53.548;9.930;2023-07-20T02:30:03;4.10;;;3.80;;
10335;SDS011;5213;53.548;9.930;2023-07-20T02:32:29;4.53;;;4.22;;
10335;SDS011;5213;53.548;9.930;2023-07-20T02:34:56;4.28;;;3.97;;
10335;SDS011;5213;53.548;9.930;2023-07-20T02:37:21;4.43;;;4.13;;
10335;SDS011;5213;53.548;9.930;2023-07-20T02:42:36;4.15;;;3.85;;
10335;SDS011;5213;53.548;9.930;2023-07-20T02:45:02;4.20;;;3.90;;
10335;SDS011;5213;53.548;9.930;2023-07-20T02:47:29;3.72;;;3.45;;
10335;SDS011;5213;53.548;9.930;2023-07-20T02:49:54;4.10;;;3.78;;
10335;SDS011;5213;53.548;9.930;2023-07-20T02:52:20;3.75;;;3.55;;
10335;SDS011;5213;53.548;9.930;2023-07-20T02:54:46;3.83;;;3.53;;
10335;SDS011;5213;53.548;9.930;2023-07-20T02:57:12;3.70;;;3.38;;
10335;SDS011;5213;53.548;9.930;2023-07-20T02:59:38;3.28;;;3.08;;
10335;SDS011;5213;53.548;9.930;2023-07-20T03:02:03;3.80;;;3.50;;
10335;SDS011;5213;53.548;9.930;2023-07-20T03:04:29;3.08;;;2.88;;
10335;SDS011;5213;53.548;9.930;2023-07-20T03:06:55;3.10;;;2.90;;
10335;SDS011;5213;53.548;9.930;2023-07-20T03:09:20;3.50;;;3.22;;
10335;SDS011;5213;53.548;9.930;2023-07-20T03:11:47;3.80;;;3.40;;
10335;SDS011;5213;53.548;9.930;2023-07-20T03:14:13;3.70;;;3.40;;
10335;SDS011;5213;53.548;9.930;2023-07-20T03:16:38;3.72;;;3.42;;
10335;SDS011;5213;53.548;9.930;2023-07-20T03:19:04;3.05;;;2.85;;
10335;SDS011;5213;53.548;9.930;2023-07-20T03:21:29;3.47;;;3.28;;
10335;SDS011;5213;53.548;9.930;2023-07-20T03:23:55;3.53;;;3.33;;
10335;SDS011;5213;53.548;9.930;2023-07-20T03:26:21;3.30;;;3.10;;
10335;SDS011;5213;53.548;9.930;2023-07-20T03:28:46;2.92;;;2.72;;
10335;SDS011;5213;53.548;9.930;2023-07-20T03:31:12;3.13;;;2.92;;
10335;SDS011;5213;53.548;9.930;2023-07-20T03:33:39;2.88;;;2.75;;
10335;SDS011;5213;53.548;9.930;2023-07-20T03:36:05;3.40;;;3.10;;
10335;SDS011;5213;53.548;9.930;2023-07-20T03:38:31;3.22;;;3.03;;
10335;SDS011;5213;53.548;9.930;2023-07-20T03:40:58;3.70;;;3.47;;
10335;SDS011;5213;53.548;9.930;2023-07-20T03:43:25;3.65;;;3.35;;
10335;SDS011;5213;53.548;9.930;2023-07-20T03:45:52;3.33;;;3.00;;
10335;SDS011;5213;53.548;9.930;2023-07-20T03:48:19;3.50;;;3.20;;
10335;SDS011;5213;53.548;9.930;2023-07-20T03:50:47;3.75;;;3.47;;
10335;SDS011;5213;53.548;9.930;2023-07-20T03:53:13;4.10;;;3.80;;
10335;SDS011;5213;53.548;9.930;2023-07-20T03:55:40;5.68;;;5.18;;
10335;SDS011;5213;53.548;9.930;2023-07-20T03:58:09;5.20;;;4.80;;
10335;SDS011;5213;53.548;9.930;2023-07-20T04:00:35;5.28;;;4.88;;
10335;SDS011;5213;53.548;9.930;2023-07-20T04:03:00;4.72;;;4.05;;
10335;SDS011;5213;53.548;9.930;2023-07-20T04:05:26;4.40;;;4.10;;
10335;SDS011;5213;53.548;9.930;2023-07-20T04:07:52;4.60;;;4.20;;
10335;SDS011;5213;53.548;9.930;2023-07-20T04:10:18;3.97;;;3.67;;
10335;SDS011;5213;53.548;9.930;2023-07-20T04:12:44;4.25;;;3.85;;
10335;SDS011;5213;53.548;9.930;2023-07-20T04:15:12;4.00;;;3.70;;
10335;SDS011;5213;53.548;9.930;2023-07-20T04:17:38;3.95;;;3.70;;
10335;SDS011;5213;53.548;9.930;2023-07-20T04:20:04;4.05;;;3.75;;
10335;SDS011;5213;53.548;9.930;2023-07-20T04:22:30;3.97;;;3.78;;
10335;SDS011;5213;53.548;9.930;2023-07-20T04:24:56;4.00;;;3.70;;
10335;SDS011;5213;53.548;9.930;2023-07-20T04:27:22;3.50;;;3.30;;
10335;SDS011;5213;53.548;9.930;2023-07-20T04:29:47;3.45;;;3.25;;
10335;SDS011;5213;53.548;9.930;2023-07-20T04:32:13;3.50;;;3.20;;
10335;SDS011;5213;53.548;9.930;2023-07-20T04:34:39;2.83;;;2.67;;
10335;SDS011;5213;53.548;9.930;2023-07-20T04:37:04;3.53;;;3.00;;
10335;SDS011;5213;53.548;9.930;2023-07-20T04:39:30;2.60;;;2.40;;
10335;SDS011;5213;53.548;9.930;2023-07-20T04:41:56;2.80;;;2.60;;
10335;SDS011;5213;53.548;9.930;2023-07-20T04:44:22;2.28;;;2.17;;
10335;SDS011;5213;53.548;9.930;2023-07-20T04:46:47;2.70;;;2.50;;
10335;SDS011;5213;53.548;9.930;2023-07-20T04:49:13;2.72;;;2.53;;
10335;SDS011;5213;53.548;9.930;2023-07-20T04:51:39;3.13;;;2.92;;
10335;SDS011;5213;53.548;9.930;2023-07-20T04:54:04;3.22;;;3.00;;
10335;SDS011;5213;53.548;9.930;2023-07-20T04:56:30;3.78;;;3.00;;
10335;SDS011;5213;53.548;9.930;2023-07-20T04:58:56;3.60;;;3.40;;
10335;SDS011;5213;53.548;9.930;2023-07-20T05:01:22;4.18;;;3.42;;
10335;SDS011;5213;53.548;9.930;2023-07-20T05:03:48;4.05;;;3.78;;
10335;SDS011;5213;53.548;9.930;2023-07-20T05:06:14;5.13;;;3.80;;
10335;SDS011;5213;53.548;9.930;2023-07-20T05:08:40;4.38;;;3.90;;
10335;SDS011;5213;53.548;9.930;2023-07-20T05:11:05;4.90;;;3.60;;
10335;SDS011;5213;53.548;9.930;2023-07-20T05:13:32;4.43;;;3.90;;
10335;SDS011;5213;53.548;9.930;2023-07-20T05:15:58;4.88;;;4.47;;
10335;SDS011;5213;53.548;9.930;2023-07-20T05:18:23;5.05;;;4.40;;
10335;SDS011;5213;53.548;9.930;2023-07-20T05:20:50;4.90;;;4.55;;
10335;SDS011;5213;53.548;9.930;2023-07-20T05:23:16;4.28;;;3.97;;
10335;SDS011;5213;53.548;9.930;2023-07-20T05:25:43;4.80;;;4.50;;
10335;SDS011;5213;53.548;9.930;2023-07-20T05:28:09;4.80;;;4.40;;
10335;SDS011;5213;53.548;9.930;2023-07-20T05:30:34;4.65;;;4.35;;
10335;SDS011;5213;53.548;9.930;2023-07-20T05:33:00;4.63;;;4.22;;
10335;SDS011;5213;53.548;9.930;2023-07-20T05:35:26;6.43;;;4.80;;
10335;SDS011;5213;53.548;9.930;2023-07-20T05:37:51;5.22;;;4.72;;
10335;SDS011;5213;53.548;9.930;2023-07-20T05:40:17;4.75;;;4.35;;
10335;SDS011;5213;53.548;9.930;2023-07-20T05:42:45;4.80;;;4.43;;
10335;SDS011;5213;53.548;9.930;2023-07-20T05:45:14;4.90;;;4.50;;
10335;SDS011;5213;53.548;9.930;2023-07-20T05:47:41;5.57;;;5.00;;
10335;SDS011;5213;53.548;9.930;2023-07-20T05:50:07;4.95;;;4.55;;
10335;SDS011;5213;53.548;9.930;2023-07-20T05:52:34;5.57;;;5.00;;
10335;SDS011;5213;53.548;9.930;2023-07-20T05:54:59;4.80;;;4.40;;
10335;SDS011;5213;53.548;9.930;2023-07-20T05:57:25;5.00;;;4.55;;
10335;SDS011;5213;53.548;9.930;2023-07-20T05:59:50;4.97;;;4.47;;
10335;SDS011;5213;53.548;9.930;2023-07-20T06:02:16;5.13;;;4.72;;
10335;SDS011;5213;53.548;9.930;2023-07-20T06:04:42;5.32;;;4.20;;
10335;SDS011;5213;53.548;9.930;2023-07-20T06:07:07;4.00;;;3.70;;
10335;SDS011;5213;53.548;9.930;2023-07-20T06:09:33;4.10;;;3.70;;
10335;SDS011;5213;53.548;9.930;2023-07-20T06:11:59;4.00;;;3.70;;
10335;SDS011;5213;53.548;9.930;2023-07-20T06:14:25;3.60;;;3.30;;
10335;SDS011;5213;53.548;9.930;2023-07-20T06:16:50;4.13;;;3.60;;
10335;SDS011;5213;53.548;9.930;2023-07-20T06:19:16;3.42;;;3.13;;
10335;SDS011;5213;53.548;9.930;2023-07-20T06:21:42;3.47;;;3.05;;
10335;SDS011;5213;53.548;9.930;2023-07-20T06:24:08;3.38;;;2.60;;
10335;SDS011;5213;53.548;9.930;2023-07-20T06:26:33;4.65;;;2.75;;
10335;SDS011;5213;53.548;9.930;2023-07-20T06:29:07;2.72;;;2.38;;
10335;SDS011;5213;53.548;9.930;2023-07-20T06:31:34;2.45;;;2.20;;
10335;SDS011;5213;53.548;9.930;2023-07-20T06:34:00;2.33;;;2.10;;
10335;SDS011;5213;53.548;9.930;2023-07-20T06:36:26;2.08;;;1.70;;
10335;SDS011;5213;53.548;9.930;2023-07-20T06:38:52;2.38;;;1.77;;
10335;SDS011;5213;53.548;9.930;2023-07-20T06:41:18;2.22;;;1.95;;
10335;SDS011;5213;53.548;9.930;2023-07-20T06:43:44;1.98;;;1.80;;
10335;SDS011;5213;53.548;9.930;2023-07-20T06:46:09;3.15;;;1.80;;
10335;SDS011;5213;53.548;9.930;2023-07-20T06:48:35;2.78;;;1.50;;
10335;SDS011;5213;53.548;9.930;2023-07-20T06:51:01;3.00;;;1.60;;
10335;SDS011;5213;53.548;9.930;2023-07-20T06:53:27;2.83;;;1.58;;
10335;SDS011;5213;53.548;9.930;2023-07-20T06:55:53;2.08;;;1.50;;
10335;SDS011;5213;53.548;9.930;2023-07-20T06:58:19;2.92;;;1.67;;
10335;SDS011;5213;53.548;9.930;2023-07-20T07:00:46;4.55;;;1.40;;
10335;SDS011;5213;53.548;9.930;2023-07-20T07:03:12;1.90;;;1.25;;
10335;SDS011;5213;53.548;9.930;2023-07-20T07:05:38;1.95;;;1.20;;
10335;SDS011;5213;53.548;9.930;2023-07-20T07:08:04;3.33;;;1.60;;
10335;SDS011;5213;53.548;9.930;2023-07-20T07:10:30;1.83;;;1.40;;
10335;SDS011;5213;53.548;9.930;2023-07-20T07:12:56;2.25;;;1.58;;
10335;SDS011;5213;53.548;9.930;2023-07-20T07:15:21;2.40;;;1.30;;
10335;SDS011;5213;53.548;9.930;2023-07-20T07:17:47;3.03;;;1.70;;
10335;SDS011;5213;53.548;9.930;2023-07-20T07:20:13;2.95;;;1.48;;
10335;SDS011;5213;53.548;9.930;2023-07-20T07:22:38;3.50;;;1.50;;
10335;SDS011;5213;53.548;9.930;2023-07-20T07:25:04;1.73;;;1.63;;
10335;SDS011;5213;53.548;9.930;2023-07-20T07:27:30;2.65;;;1.25;;
10335;SDS011;5213;53.548;9.930;2023-07-20T07:29:56;1.40;;;1.30;;
10335;SDS011;5213;53.548;9.930;2023-07-20T07:32:21;2.67;;;1.63;;
10335;SDS011;5213;53.548;9.930;2023-07-20T07:34:47;1.65;;;1.55;;
10335;SDS011;5213;53.548;9.930;2023-07-20T07:37:13;4.05;;;1.60;;
10335;SDS011;5213;53.548;9.930;2023-07-20T07:39:39;3.97;;;1.85;;
10335;SDS011;5213;53.548;9.930;2023-07-20T07:42:05;3.15;;;1.60;;
10335;SDS011;5213;53.548;9.930;2023-07-20T07:44:31;6.43;;;1.80;;
10335;SDS011;5213;53.548;9.930;2023-07-20T07:46:56;4.40;;;1.90;;
10335;SDS011;5213;53.548;9.930;2023-07-20T07:49:22;2.75;;;1.52;;
10335;SDS011;5213;53.548;9.930;2023-07-20T07:51:48;1.80;;;1.70;;
10335;SDS011;5213;53.548;9.930;2023-07-20T07:54:14;2.53;;;1.70;;
10335;SDS011;5213;53.548;9.930;2023-07-20T07:56:39;4.05;;;1.83;;
10335;SDS011;5213;53.548;9.930;2023-07-20T07:59:05;3.20;;;1.80;;
10335;SDS011;5213;53.548;9.930;2023-07-20T08:01:31;1.75;;;1.50;;
10335;SDS011;5213;53.548;9.930;2023-07-20T08:03:57;3.17;;;1.90;;
10335;SDS011;5213;53.548;9.930;2023-07-20T08:06:23;3.55;;;1.83;;
10335;SDS011;5213;53.548;9.930;2023-07-20T08:08:49;3.65;;;1.80;;
10335;SDS011;5213;53.548;9.930;2023-07-20T08:11:15;3.58;;;1.80;;
10335;SDS011;5213;53.548;9.930;2023-07-20T08:13:42;3.20;;;2.10;;
10335;SDS011;5213;53.548;9.930;2023-07-20T08:16:08;2.30;;;1.90;;
10335;SDS011;5213;53.548;9.930;2023-07-20T08:18:34;6.55;;;2.28;;
10335;SDS011;5213;53.548;9.930;2023-07-20T08:21:00;3.75;;;2.22;;
10335;SDS011;5213;53.548;9.930;2023-07-20T08:23:25;5.10;;;2.10;;
10335;SDS011;5213;53.548;9.930;2023-07-20T08:25:52;2.53;;;1.92;;
10335;SDS011;5213;53.548;9.930;2023-07-20T08:28:18;4.20;;;2.20;;
10335;SDS011;5213;53.548;9.930;2023-07-20T08:30:45;2.40;;;1.95;;
10335;SDS011;5213;53.548;9.930;2023-07-20T08:33:15;3.15;;;2.17;;
10335;SDS011;5213;53.548;9.930;2023-07-20T08:35:45;4.30;;;1.90;;
10335;SDS011;5213;53.548;9.930;2023-07-20T08:38:11;6.22;;;2.00;;
10335;SDS011;5213;53.548;9.930;2023-07-20T08:40:41;4.60;;;2.40;;
10335;SDS011;5213;53.548;9.930;2023-07-20T08:43:09;4.10;;;2.40;;
10335;SDS011;5213;53.548;9.930;2023-07-20T08:45:37;3.70;;;2.53;;
10335;SDS011;5213;53.548;9.930;2023-07-20T08:48:05;4.30;;;2.20;;
10335;SDS011;5213;53.548;9.930;2023-07-20T08:50:31;4.60;;;2.30;;
10335;SDS011;5213;53.548;9.930;2023-07-20T08:52:58;9.30;;;2.83;;
10335;SDS011;5213;53.548;9.930;2023-07-20T08:55:28;4.68;;;2.30;;
10335;SDS011;5213;53.548;9.930;2023-07-20T08:57:56;4.20;;;2.05;;
10335;SDS011;5213;53.548;9.930;2023-07-20T09:00:26;4.53;;;2.30;;
10335;SDS011;5213;53.548;9.930;2023-07-20T09:02:53;3.47;;;2.35;;
10335;SDS011;5213;53.548;9.930;2023-07-20T09:05:20;5.35;;;2.47;;
10335;SDS011;5213;53.548;9.930;2023-07-20T09:07:47;4.97;;;1.88;;
10335;SDS011;5213;53.548;9.930;2023-07-20T09:10:13;3.55;;;2.15;;
10335;SDS011;5213;53.548;9.930;2023-07-20T09:12:40;3.45;;;2.20;;
10335;SDS011;5213;53.548;9.930;2023-07-20T09:15:07;3.20;;;2.00;;
10335;SDS011;5213;53.548;9.930;2023-07-20T09:17:33;2.33;;;1.80;;
10335;SDS011;5213;53.548;9.930;2023-07-20T09:20:03;5.78;;;1.88;;
10335;SDS011;5213;53.548;9.930;2023-07-20T09:22:33;4.45;;;1.92;;
10335;SDS011;5213;53.548;9.930;2023-07-20T09:24:59;5.57;;;1.73;;
10335;SDS011;5213;53.548;9.930;2023-07-20T09:27:34;3.17;;;1.60;;
10335;SDS011;5213;53.548;9.930;2023-07-20T09:30:01;3.88;;;1.60;;
10335;SDS011;5213;53.548;9.930;2023-07-20T09:32:27;1.77;;;1.30;;
10335;SDS011;5213;53.548;9.930;2023-07-20T09:34:52;1.10;;;1.00;;
10335;SDS011;5213;53.548;9.930;2023-07-20T09:37:21;2.15;;;1.20;;
10335;SDS011;5213;53.548;9.930;2023-07-20T09:39:47;3.05;;;1.80;;
10335;SDS011;5213;53.548;9.930;2023-07-20T09:42:16;2.65;;;1.65;;
10335;SDS011;5213;53.548;9.930;2023-07-20T09:44:45;4.97;;;1.90;;
10335;SDS011;5213;53.548;9.930;2023-07-20T09:47:10;2.65;;;1.83;;
10335;SDS011;5213;53.548;9.930;2023-07-20T09:49:40;1.67;;;1.58;;
10335;SDS011;5213;53.548;9.930;2023-07-20T09:52:06;2.25;;;1.63;;
10335;SDS011;5213;53.548;9.930;2023-07-20T09:54:33;2.20;;;1.80;;
10335;SDS011;5213;53.548;9.930;2023-07-20T09:57:00;3.13;;;1.50;;
10335;SDS011;5213;53.548;9.930;2023-07-20T09:59:27;2.13;;;1.50;;
10335;SDS011;5213;53.548;9.930;2023-07-20T10:01:53;2.70;;;1.85;;
10335;SDS011;5213;53.548;9.930;2023-07-20T10:04:23;3.03;;;1.67;;
10335;SDS011;5213;53.548;9.930;2023-07-20T10:06:49;3.45;;;1.58;;
10335;SDS011;5213;53.548;9.930;2023-07-20T10:09:19;5.70;;;1.35;;
10335;SDS011;5213;53.548;9.930;2023-07-20T10:11:49;4.25;;;1.10;;
10335;SDS011;5213;53.548;9.930;2023-07-20T10:14:22;3.72;;;1.08;;
10335;SDS011;5213;53.548;9.930;2023-07-20T10:16:51;2.55;;;1.42;;
10335;SDS011;5213;53.548;9.930;2023-07-20T10:19:27;3.17;;;1.23;;
10335;SDS011;5213;53.548;9.930;2023-07-20T10:22:12;1.23;;;1.10;;
10335;SDS011;5213;53.548;9.930;2023-07-20T10:24:44;2.55;;;1.27;;
10335;SDS011;5213;53.548;9.930;2023-07-20T10:27:10;4.50;;;1.45;;
10335;SDS011;5213;53.548;9.930;2023-07-20T10:29:36;2.22;;;1.40;;
10335;SDS011;5213;53.548;9.930;2023-07-20T10:32:03;2.40;;;1.27;;
10335;SDS011;5213;53.548;9.930;2023-07-20T10:34:29;4.40;;;1.23;;
10335;SDS011;5213;53.548;9.930;2023-07-20T10:36:54;45.65;;;4.25;;
10335;SDS011;5213;53.548;9.930;2023-07-20T10:39:27;2.83;;;1.40;;
10335;SDS011;5213;53.548;9.930;2023-07-20T10:42:07;3.20;;;1.50;;
10335;SDS011;5213;53.548;9.930;2023-07-20T10:44:36;1.77;;;1.15;;
10335;SDS011;5213;53.548;9.930;2023-07-20T10:47:03;1.67;;;1.20;;
10335;SDS011;5213;53.548;9.930;2023-07-20T10:49:34;1.15;;;1.08;;
10335;SDS011;5213;53.548;9.930;2023-07-20T10:52:03;3.00;;;1.20;;
10335;SDS011;5213;53.548;9.930;2023-07-20T10:57:16;2.58;;;1.15;;
10335;SDS011;5213;53.548;9.930;2023-07-20T10:59:49;4.47;;;1.20;;
10335;SDS011;5213;53.548;9.930;2023-07-20T11:02:17;3.08;;;1.40;;
10335;SDS011;5213;53.548;9.930;2023-07-20T11:04:45;1.77;;;1.15;;
10335;SDS011;5213;53.548;9.930;2023-07-20T11:07:15;2.92;;;1.30;;
10335;SDS011;5213;53.548;9.930;2023-07-20T11:09:42;5.70;;;1.30;;
10335;SDS011;5213;53.548;9.930;2023-07-20T11:12:15;2.20;;;1.08;;
10335;SDS011;5213;53.548;9.930;2023-07-20T11:14:55;10.73;;;3.00;;
10335;SDS011;5213;53.548;9.930;2023-07-20T11:17:28;1.10;;;1.00;;
10335;SDS011;5213;53.548;9.930;2023-07-20T11:19:58;2.17;;;1.10;;
10335;SDS011;5213;53.548;9.930;2023-07-20T11:22:26;1.33;;;1.08;;
10335;SDS011;5213;53.548;9.930;2023-07-20T11:24:54;2.47;;;1.08;;
10335;SDS011;5213;53.548;9.930;2023-07-20T11:27:20;3.47;;;1.00;;
10335;SDS011;5213;53.548;9.930;2023-07-20T11:29:47;1.92;;;0.70;;
10335;SDS011;5213;53.548;9.930;2023-07-20T11:32:20;2.45;;;1.05;;
10335;SDS011;5213;53.548;9.930;2023-07-20T11:34:47;2.42;;;0.95;;
10335;SDS011;5213;53.548;9.930;2023-07-20T11:37:14;1.17;;;1.00;;
10335;SDS011;5213;53.548;9.930;2023-07-20T11:39:39;2.22;;;0.95;;
10335;SDS011;5213;53.548;9.930;2023-07-20T11:42:05;4.22;;;1.30;;
10335;SDS011;5213;53.548;9.930;2023-07-20T11:44:34;2.92;;;1.20;;
10335;SDS011;5213;53.548;9.930;2023-07-20T11:49:29;2.95;;;1.00;;
10335;SDS011;5213;53.548;9.930;2023-07-20T11:51:56;1.73;;;1.40;;
10335;SDS011;5213;53.548;9.930;2023-07-20T11:54:23;1.67;;;1.02;;
10335;SDS011;5213;53.548;9.930;2023-07-20T11:56:53;2.65;;;0.93;;
10335;SDS011;5213;53.548;9.930;2023-07-20T11:59:21;1.02;;;1.00;;
10335;SDS011;5213;53.548;9.930;2023-07-20T12:01:47;1.60;;;1.02;;
10335;SDS011;5213;53.548;9.930;2023-07-20T12:04:13;2.10;;;1.15;;
10335;SDS011;5213;53.548;9.930;2023-07-20T12:06:38;4.25;;;1.20;;
10335;SDS011;5213;53.548;9.930;2023-07-20T12:09:04;1.98;;;1.05;;
10335;SDS011;5213;53.548;9.930;2023-07-20T12:11:39;2.45;;;1.00;;
10335;SDS011;5213;53.548;9.930;2023-07-20T12:14:08;2.08;;;1.23;;
10335;SDS011;5213;53.548;9.930;2023-07-20T12:16:35;2.45;;;1.15;;
10335;SDS011;5213;53.548;9.930;2023-07-20T12:21:37;4.22;;;1.10;;
10335;SDS011;5213;53.548;9.930;2023-07-20T12:24:05;0.80;;;0.80;;
10335;SDS011;5213;53.548;9.930;2023-07-20T12:26:32;1.08;;;0.82;;
10335;SDS011;5213;53.548;9.930;2023-07-20T12:28:58;1.10;;;0.80;;
10335;SDS011;5213;53.548;9.930;2023-07-20T12:31:24;3.60;;;1.00;;
10335;SDS011;5213;53.548;9.930;2023-07-20T12:33:51;0.82;;;0.70;;
10335;SDS011;5213;53.548;9.930;2023-07-20T12:36:17;1.10;;;0.98;;
10335;SDS011;5213;53.548;9.930;2023-07-20T12:38:43;2.40;;;0.90;;
10335;SDS011;5213;53.548;9.930;2023-07-20T12:41:10;1.60;;;0.90;;
10335;SDS011;5213;53.548;9.930;2023-07-20T12:43:43;3.00;;;0.93;;
10335;SDS011;5213;53.548;9.930;2023-07-20T12:46:10;1.73;;;1.00;;
10335;SDS011;5213;53.548;9.930;2023-07-20T12:48:38;1.45;;;1.05;;
10335;SDS011;5213;53.548;9.930;2023-07-20T12:51:06;1.55;;;0.80;;
10335;SDS011;5213;53.548;9.930;2023-07-20T12:53:32;1.63;;;1.00;;
10335;SDS011;5213;53.548;9.930;2023-07-20T12:55:59;3.45;;;1.45;;
10335;SDS011;5213;53.548;9.930;2023-07-20T12:58:25;1.85;;;1.10;;
10335;SDS011;5213;53.548;9.930;2023-07-20T13:00:51;5.40;;;1.27;;
10335;SDS011;5213;53.548;9.930;2023-07-20T13:03:16;1.17;;;1.08;;
10335;SDS011;5213;53.548;9.930;2023-07-20T13:05:44;3.88;;;1.08;;
10335;SDS011;5213;53.548;9.930;2023-07-20T13:08:10;2.25;;;0.90;;
10335;SDS011;5213;53.548;9.930;2023-07-20T13:10:36;2.47;;;0.80;;
10335;SDS011;5213;53.548;9.930;2023-07-20T13:13:03;1.88;;;0.90;;
10335;SDS011;5213;53.548;9.930;2023-07-20T13:15:30;1.17;;;0.88;;
10335;SDS011;5213;53.548;9.930;2023-07-20T13:17:59;1.27;;;0.88;;
10335;SDS011;5213;53.548;9.930;2023-07-20T13:20:25;3.22;;;1.05;;
10335;SDS011;5213;53.548;9.930;2023-07-20T13:22:51;3.67;;;1.30;;
10335;SDS011;5213;53.548;9.930;2023-07-20T13:25:17;1.45;;;0.95;;
10335;SDS011;5213;53.548;9.930;2023-07-20T13:27:43;1.35;;;0.77;;
10335;SDS011;5213;53.548;9.930;2023-07-20T13:30:09;1.55;;;1.00;;
10335;SDS011;5213;53.548;9.930;2023-07-20T13:32:41;2.15;;;1.00;;
10335;SDS011;5213;53.548;9.930;2023-07-20T13:35:08;1.08;;;0.90;;
10335;SDS011;5213;53.548;9.930;2023-07-20T13:37:33;1.33;;;1.20;;
10335;SDS011;5213;53.548;9.930;2023-07-20T13:39:59;1.95;;;0.85;;
10335;SDS011;5213;53.548;9.930;2023-07-20T13:42:24;2.90;;;0.60;;
10335;SDS011;5213;53.548;9.930;2023-07-20T13:44:50;1.83;;;0.90;;
10335;SDS011;5213;53.548;9.930;2023-07-20T13:47:16;1.02;;;0.90;;
10335;SDS011;5213;53.548;9.930;2023-07-20T13:49:43;1.00;;;0.85;;
10335;SDS011;5213;53.548;9.930;2023-07-20T13:52:09;1.73;;;1.02;;
10335;SDS011;5213;53.548;9.930;2023-07-20T13:54:35;1.45;;;1.00;;
10335;SDS011;5213;53.548;9.930;2023-07-20T13:57:00;1.15;;;0.95;;
10335;SDS011;5213;53.548;9.930;2023-07-20T13:59:27;2.30;;;1.00;;
10335;SDS011;5213;53.548;9.930;2023-07-20T14:01:53;2.60;;;0.88;;
10335;SDS011;5213;53.548;9.930;2023-07-20T14:04:18;2.13;;;1.08;;
10335;SDS011;5213;53.548;9.930;2023-07-20T14:06:44;2.05;;;0.63;;
10335;SDS011;5213;53.548;9.930;2023-07-20T14:09:09;1.77;;;1.00;;
10335;SDS011;5213;53.548;9.930;2023-07-20T14:11:35;3.55;;;1.15;;
10335;SDS011;5213;53.548;9.930;2023-07-20T14:14:01;1.95;;;1.08;;
10335;SDS011;5213;53.548;9.930;2023-07-20T14:16:27;1.23;;;1.02;;
10335;SDS011;5213;53.548;9.930;2023-07-20T14:18:53;3.90;;;1.10;;
10335;SDS011;5213;53.548;9.930;2023-07-20T14:21:20;1.08;;;0.98;;
10335;SDS011;5213;53.548;9.930;2023-07-20T14:23:46;2.13;;;0.90;;
10335;SDS011;5213;53.548;9.930;2023-07-20T14:26:13;3.00;;;0.93;;
10335;SDS011;5213;53.548;9.930;2023-07-20T14:28:39;2.97;;;1.13;;
10335;SDS011;5213;53.548;9.930;2023-07-20T14:31:04;1.05;;;1.00;;
10335;SDS011;5213;53.548;9.930;2023-07-20T14:33:30;1.23;;;1.00;;
10335;SDS011;5213;53.548;9.930;2023-07-20T14:35:56;2.95;;;1.10;;
10335;SDS011;5213;53.548;9.930;2023-07-20T14:38:22;1.58;;;1.20;;
10335;SDS011;5213;53.548;9.930;2023-07-20T14:40:47;1.20;;;1.10;;
10335;SDS011;5213;53.548;9.930;2023-07-20T14:43:13;1.33;;;1.17;;
10335;SDS011;5213;53.548;9.930;2023-07-20T14:45:42;3.47;;;1.20;;
10335;SDS011;5213;53.548;9.930;2023-07-20T14:48:08;2.08;;;1.10;;
10335;SDS011;5213;53.548;9.930;2023-07-20T14:50:34;1.15;;;1.00;;
10335;SDS011;5213;53.548;9.930;2023-07-20T14:53:00;1.38;;;1.27;;
10335;SDS011;5213;53.548;9.930;2023-07-20T14:55:25;1.98;;;1.02;;
10335;SDS011;5213;53.548;9.930;2023-07-20T14:57:51;1.52;;;1.00;;
10335;SDS011;5213;53.548;9.930;2023-07-20T15:00:17;3.03;;;1.58;;
10335;SDS011;5213;53.548;9.930;2023-07-20T15:02:43;1.83;;;1.23;;
10335;SDS011;5213;53.548;9.930;2023-07-20T15:05:09;2.40;;;1.35;;
10335;SDS011;5213;53.548;9.930;2023-07-20T15:07:36;3.08;;;1.48;;
10335;SDS011;5213;53.548;9.930;2023-07-20T15:10:05;2.28;;;1.08;;
10335;SDS011;5213;53.548;9.930;2023-07-20T15:12:31;2.10;;;1.42;;